createdAt,value
2023-03-04T00:01:37.771Z,0.28
2023-03-04T00:06:41.321Z,0.30
2023-03-04T00:11:44.806Z,0.40
2023-03-04T00:16:49.528Z,0.57
2023-03-04T00:21:52.729Z,0.28
2023-03-04T00:26:57.165Z,0.30
2023-03-04T00:32:00.853Z,0.60
2023-03-04T00:37:04.488Z,0.30
2023-03-04T00:42:08.760Z,0.30
2023-03-04T00:47:12.128Z,0.20
2023-03-04T00:52:15.828Z,0.50
2023-03-04T00:57:19.393Z,0.25
2023-03-04T01:02:23.569Z,0.20
2023-03-04T01:07:27.096Z,0.25
2023-03-04T01:12:31.089Z,0.20
2023-03-04T01:17:36.290Z,0.30
2023-03-04T01:22:40.157Z,0.22
2023-03-04T01:27:44.263Z,0.25
2023-03-04T01:32:47.581Z,0.10
2023-03-04T01:37:53.488Z,0.20
2023-03-04T01:42:57.097Z,0.30
2023-03-04T01:48:00.822Z,0.10
2023-03-04T01:53:05.147Z,0.00
2023-03-04T01:58:12.408Z,0.35
2023-03-04T02:03:22.668Z,0.20
2023-03-04T02:08:26.089Z,0.28
2023-03-04T02:13:29.793Z,0.30
2023-03-04T02:18:33.190Z,0.20
2023-03-04T02:23:45.627Z,0.20
2023-03-04T02:28:51.282Z,0.38
2023-03-04T02:33:59.039Z,0.30
2023-03-04T02:39:12.651Z,0.20
2023-03-04T02:44:20.858Z,0.20
2023-03-04T02:49:27.117Z,0.17
2023-03-04T02:54:31.909Z,0.20
2023-03-04T02:59:39.364Z,0.28
2023-03-04T03:04:43.505Z,0.10
2023-03-04T03:09:50.093Z,0.20
2023-03-04T03:14:55.697Z,0.20
2023-03-04T03:20:01.093Z,0.55
2023-03-04T03:25:06.407Z,0.20
2023-03-04T03:30:13.028Z,0.10
2023-03-04T03:35:16.814Z,0.10
2023-03-04T03:40:20.817Z,0.17
2023-03-04T03:45:24.575Z,0.20
2023-03-04T03:50:29.752Z,0.13
2023-03-04T03:55:33.514Z,0.38
2023-03-04T04:00:39.473Z,0.50
2023-03-04T04:05:43.040Z,0.30
2023-03-04T04:10:47.141Z,0.40
2023-03-04T04:15:53.034Z,0.47
2023-03-04T04:20:57.451Z,0.47
2023-03-04T04:26:01.041Z,0.40
2023-03-04T04:31:09.367Z,0.30
2023-03-04T04:36:17.266Z,0.47
2023-03-04T04:41:24.415Z,0.50
2023-03-04T04:46:29.630Z,0.75
2023-03-04T04:51:33.812Z,0.50
2023-03-04T04:56:37.703Z,0.52
2023-03-04T05:01:41.647Z,0.63
2023-03-04T05:06:45.777Z,1.00
2023-03-04T05:11:50.369Z,0.60
2023-03-04T05:16:54.642Z,0.57
2023-03-04T05:21:58.331Z,0.60
2023-03-04T05:27:02.953Z,1.20
2023-03-04T05:32:07.191Z,0.70
2023-03-04T05:37:11.857Z,0.90
2023-03-04T05:42:16.583Z,0.98
2023-03-04T05:47:20.873Z,1.00
2023-03-04T05:52:24.623Z,0.90
2023-03-04T05:57:28.045Z,0.80
2023-03-04T06:02:32.455Z,0.63
2023-03-04T06:07:36.137Z,0.90
2023-03-04T06:12:39.372Z,0.70
2023-03-04T06:17:43.476Z,0.90
2023-03-04T06:22:47.581Z,0.70
2023-03-04T06:27:51.596Z,1.15
2023-03-04T06:32:55.600Z,1.45
2023-03-04T06:37:58.921Z,0.90
2023-03-04T06:43:03.386Z,0.50
2023-03-04T06:48:07.218Z,0.30
2023-03-04T06:53:11.393Z,0.30
2023-03-04T06:58:15.235Z,0.32
2023-03-04T07:03:18.577Z,0.28
2023-03-04T07:08:22.179Z,0.20
2023-03-04T07:13:26.233Z,0.20
2023-03-04T07:18:29.828Z,0.28
2023-03-04T07:23:34.477Z,0.30
2023-03-04T07:28:38.367Z,0.43
2023-03-04T07:33:42.024Z,0.45
2023-03-04T07:38:47.648Z,0.65
2023-03-04T07:43:52.222Z,0.63
2023-03-04T07:48:56.741Z,0.43
2023-03-04T07:54:02.262Z,0.40
2023-03-04T07:59:07.077Z,0.40
2023-03-04T08:04:11.060Z,0.65
2023-03-04T08:09:15.238Z,0.50
2023-03-04T08:14:18.839Z,1.05
2023-03-04T08:19:23.606Z,1.08
2023-03-04T08:24:29.122Z,2.78
2023-03-04T08:29:32.876Z,1.85
2023-03-04T08:34:39.767Z,0.80
2023-03-04T08:39:43.152Z,1.10
2023-03-04T08:44:46.911Z,0.93
2023-03-04T08:49:50.591Z,1.88
2023-03-04T08:54:54.846Z,1.33
2023-03-04T08:59:59.438Z,1.30
2023-03-04T09:05:03.522Z,1.30
2023-03-04T09:10:07.910Z,1.30
2023-03-04T09:15:12.252Z,1.70
2023-03-04T09:20:16.633Z,3.33
2023-03-04T09:25:21.214Z,1.77
2023-03-04T09:30:25.157Z,1.40
2023-03-04T09:35:30.407Z,1.33
2023-03-04T09:40:40.691Z,1.00
2023-03-04T09:45:49.805Z,1.55
2023-03-04T09:51:24.993Z,1.05
2023-03-04T09:56:29.301Z,1.50
2023-03-04T10:01:51.413Z,10.23
2023-03-04T10:06:56.179Z,2.30
2023-03-04T10:12:07.439Z,1.60
2023-03-04T10:17:22.812Z,0.55
2023-03-04T10:22:35.411Z,1.27
2023-03-04T10:27:39.364Z,0.90
2023-03-04T10:32:48.558Z,0.80
2023-03-04T10:37:53.641Z,1.10
2023-03-04T10:43:00.722Z,0.93
2023-03-04T10:48:04.449Z,1.10
2023-03-04T10:53:38.106Z,1.40
2023-03-04T10:58:42.488Z,1.13
2023-03-04T11:03:50.831Z,0.80
2023-03-04T11:09:00.107Z,0.90
2023-03-04T11:14:23.787Z,1.00
2023-03-04T11:19:56.945Z,1.40
2023-03-04T11:25:08.189Z,0.70
2023-03-04T11:30:27.409Z,0.93
2023-03-04T11:35:43.619Z,1.70
2023-03-04T11:40:55.479Z,1.38
2023-03-04T11:46:30.455Z,1.00
2023-03-04T11:51:39.360Z,0.95
2023-03-04T11:56:46.534Z,0.98
2023-03-04T12:02:05.633Z,1.27
2023-03-04T12:07:20.864Z,0.88
2023-03-04T12:12:52.754Z,0.75
2023-03-04T12:18:14.977Z,0.70
2023-03-04T12:23:25.014Z,0.98
2023-03-04T12:29:06.368Z,0.75
2023-03-04T12:34:13.627Z,0.60
2023-03-04T12:39:43.363Z,0.80
2023-03-04T12:45:26.050Z,0.73
2023-03-04T12:50:43.059Z,0.40
2023-03-04T12:55:48.434Z,0.25
2023-03-04T13:00:58.532Z,0.60
2023-03-04T13:06:24.685Z,0.50
2023-03-04T13:11:29.131Z,0.97
2023-03-04T13:16:35.775Z,1.00
2023-03-04T13:21:55.454Z,4.38
2023-03-04T13:27:00.712Z,0.60
2023-03-04T13:32:11.904Z,0.50
2023-03-04T13:37:32.553Z,0.57
2023-03-04T13:42:44.146Z,0.85
2023-03-04T13:47:49.296Z,0.60
2023-03-04T13:52:53.823Z,0.75
2023-03-04T13:57:57.988Z,0.47
2023-03-04T14:03:31.755Z,0.60
2023-03-04T14:08:35.613Z,0.40
2023-03-04T14:13:39.497Z,1.10
2023-03-04T14:18:43.380Z,2.22
2023-03-04T14:23:47.211Z,0.75
2023-03-04T14:28:53.170Z,0.38
2023-03-04T14:39:15.742Z,1.30
2023-03-04T14:44:38.397Z,0.40
2023-03-04T14:49:42.276Z,1.40
2023-03-04T14:55:02.798Z,0.30
2023-03-04T15:00:23.102Z,0.60
2023-03-04T15:05:32.357Z,0.60
2023-03-04T15:10:38.626Z,0.45
2023-03-04T15:15:47.484Z,0.40
2023-03-04T15:21:02.964Z,0.50
2023-03-04T15:26:11.634Z,0.52
2023-03-04T15:31:21.650Z,0.98
2023-03-04T15:36:25.498Z,1.20
2023-03-04T15:41:29.041Z,1.67
2023-03-04T15:46:33.195Z,1.33
2023-03-04T15:51:37.669Z,1.42
2023-03-04T15:56:41.501Z,1.90
2023-03-04T16:01:45.396Z,2.10
2023-03-04T16:06:50.836Z,1.10
2023-03-04T16:11:56.789Z,0.80
2023-03-04T16:17:00.468Z,2.30
2023-03-04T16:22:04.550Z,3.25
2023-03-04T16:27:16.023Z,3.72
2023-03-04T16:32:20.487Z,1.30
2023-03-04T16:37:24.172Z,0.90
2023-03-04T16:42:28.565Z,0.50
2023-03-04T16:47:32.764Z,1.80
2023-03-04T16:52:38.130Z,4.05
2023-03-04T16:57:41.829Z,5.95
2023-03-04T17:02:47.072Z,6.55
2023-03-04T17:07:50.870Z,7.30
2023-03-04T17:12:55.445Z,5.53
2023-03-04T17:17:58.911Z,5.72
2023-03-04T17:23:02.909Z,6.82
2023-03-04T17:28:06.636Z,6.38
2023-03-04T17:33:09.798Z,6.50
2023-03-04T17:38:15.376Z,8.80
2023-03-04T17:43:19.533Z,8.88
2023-03-04T17:48:22.897Z,7.45
2023-03-04T17:53:27.151Z,7.32
2023-03-04T17:58:33.740Z,6.45
2023-03-04T18:03:38.140Z,6.63
2023-03-04T18:08:41.526Z,6.97
2023-03-04T18:13:45.756Z,7.63
2023-03-04T18:18:50.695Z,7.70
2023-03-04T18:23:54.287Z,6.35
2023-03-04T18:28:58.251Z,6.20
2023-03-04T18:34:02.922Z,6.45
2023-03-04T18:39:07.802Z,7.00
2023-03-04T18:44:12.175Z,6.78
2023-03-04T18:49:16.569Z,6.47
2023-03-04T18:54:19.977Z,5.57
2023-03-04T18:59:47.543Z,4.70
2023-03-04T19:04:53.516Z,4.15
2023-03-04T19:09:56.950Z,5.05
2023-03-04T19:15:00.863Z,3.20
2023-03-04T19:20:06.942Z,3.38
2023-03-04T19:25:11.120Z,4.93
2023-03-04T19:30:15.246Z,4.03
2023-03-04T19:35:19.157Z,4.03
2023-03-04T19:40:23.730Z,4.57
2023-03-04T19:45:27.148Z,4.45
2023-03-04T19:50:32.237Z,3.92
2023-03-04T19:55:39.046Z,3.22
2023-03-04T20:00:43.117Z,4.82
2023-03-04T20:05:48.091Z,6.45
2023-03-04T20:10:51.545Z,6.63
2023-03-04T20:15:55.286Z,4.80
2023-03-04T20:20:58.493Z,3.10
2023-03-04T20:26:02.587Z,3.13
2023-03-04T20:31:16.178Z,2.80
2023-03-04T20:36:21.478Z,3.25
2023-03-04T20:41:27.208Z,2.63
2023-03-04T20:46:46.420Z,2.45
2023-03-04T20:51:56.536Z,2.50
2023-03-04T20:57:01.109Z,4.00
2023-03-04T21:02:07.439Z,3.90
2023-03-04T21:07:11.128Z,3.83
2023-03-04T21:12:14.518Z,3.80
2023-03-04T21:17:19.130Z,4.65
2023-03-04T21:22:22.905Z,4.70
2023-03-04T21:27:26.782Z,4.15
2023-03-04T21:32:30.750Z,3.83
2023-03-04T21:37:36.186Z,5.15
2023-03-04T21:42:39.925Z,5.38
2023-03-04T21:47:43.994Z,5.18
2023-03-04T21:52:47.981Z,6.07
2023-03-04T21:57:51.792Z,5.85
2023-03-04T22:02:56.506Z,5.93
2023-03-04T22:08:00.687Z,5.72
2023-03-04T22:13:05.392Z,6.20
2023-03-04T22:18:11.493Z,6.43
2023-03-04T22:23:15.807Z,6.13
2023-03-04T22:28:19.319Z,5.00
2023-03-04T22:33:25.347Z,5.05
2023-03-04T22:38:29.600Z,4.82
2023-03-04T22:43:34.061Z,5.65
2023-03-04T22:48:38.543Z,5.45
2023-03-04T22:53:43.823Z,4.28
2023-03-04T22:58:48.438Z,5.30
2023-03-04T23:03:51.941Z,5.97
2023-03-04T23:08:55.255Z,4.97
2023-03-04T23:14:02.417Z,4.82
2023-03-04T23:19:07.325Z,5.47
2023-03-04T23:24:12.660Z,5.95
2023-03-04T23:29:16.872Z,4.78
2023-03-04T23:34:20.970Z,3.70
2023-03-04T23:39:24.717Z,3.30
2023-03-04T23:44:28.018Z,3.25
2023-03-04T23:49:31.944Z,3.00
2023-03-04T23:54:36.119Z,2.80
2023-03-04T23:59:40.738Z,2.70
